sensor_id;sensor_type;location;lat;lon;timestamp;pressure;altitude;pressure_sealevel;temperature;humidity
34243;BME280;20504;43.214;27.920;2023-03-19T00:01:25;97403.75;;;11.01;100.00
34243;BME280;20504;43.214;27.920;2023-03-19T00:03:52;97437.25;;;10.94;100.00
34243;BME280;20504;43.214;27.920;2023-03-19T00:06:17;97461.13;;;10.94;100.00
34243;BME280;20504;43.214;27.920;2023-03-19T00:08:43;97490.47;;;10.92;100.00
34243;BME280;20504;43.214;27.920;2023-03-19T00:11:10;97472.16;;;11.06;100.00
34243;BME280;20504;43.214;27.920;2023-03-19T00:13:36;97514.47;;;10.99;100.00
34243;BME280;20504;43.214;27.920;2023-03-19T00:16:02;97522.25;;;11.01;100.00
34243;BME280;20504;43.214;27.920;2023-03-19T00:18:27;97537.81;;;11.04;100.00
34243;BME280;20504;43.214;27.920;2023-03-19T00:20:53;97569.16;;;10.92;100.00
34243;BME280;20504;43.214;27.920;2023-03-19T00:23:18;97603.69;;;10.84;100.00
34243;BME280;20504;43.214;27.920;2023-03-19T00:25:44;97612.81;;;10.73;100.00
34243;BME280;20504;43.214;27.920;2023-03-19T00:28:09;97596.84;;;10.98;100.00
34243;BME280;20504;43.214;27.920;2023-03-19T00:30:36;97574.56;;;11.07;100.00
34243;BME280;20504;43.214;27.920;2023-03-19T00:33:01;97630.84;;;10.86;100.00
34243;BME280;20504;43.214;27.920;2023-03-19T00:35:27;97624.03;;;10.91;100.00
34243;BME280;20504;43.214;27.920;2023-03-19T00:37:52;97645.88;;;10.93;100.00
34243;BME280;20504;43.214;27.920;2023-03-19T00:40:19;97661.63;;;10.95;100.00
34243;BME280;20504;43.214;27.920;2023-03-19T00:42:44;97680.06;;;10.72;100.00
34243;BME280;20504;43.214;27.920;2023-03-19T00:45:11;97716.31;;;10.88;100.00
34243;BME280;20504;43.214;27.920;2023-03-19T00:47:36;97751.78;;;10.87;100.00
34243;BME280;20504;43.214;27.920;2023-03-19T00:50:03;97724.75;;;11.00;100.00
34243;BME280;20504;43.214;27.920;2023-03-19T00:52:29;97762.41;;;10.87;100.00
34243;BME280;20504;43.214;27.920;2023-03-19T00:54:54;97741.16;;;10.95;100.00
34243;BME280;20504;43.214;27.920;2023-03-19T00:57:20;97732.88;;;11.06;100.00
34243;BME280;20504;43.214;27.920;2023-03-19T00:59:46;97743.66;;;11.05;100.00
34243;BME280;20504;43.214;27.920;2023-03-19T01:02:12;97786.06;;;10.97;100.00
34243;BME280;20504;43.214;27.920;2023-03-19T01:04:37;97756.41;;;11.01;100.00
34243;BME280;20504;43.214;27.920;2023-03-19T01:07:03;97808.97;;;10.98;100.00
34243;BME280;20504;43.214;27.920;2023-03-19T01:09:29;97803.78;;;10.96;100.00
34243;BME280;20504;43.214;27.920;2023-03-19T01:11:54;97819.22;;;11.01;100.00
34243;BME280;20504;43.214;27.920;2023-03-19T01:14:20;97820.38;;;11.06;100.00
34243;BME280;20504;43.214;27.920;2023-03-19T01:16:46;97819.22;;;11.09;100.00
34243;BME280;20504;43.214;27.920;2023-03-19T01:19:11;97829.00;;;11.00;100.00
34243;BME280;20504;43.214;27.920;2023-03-19T01:21:37;97847.06;;;11.05;100.00
34243;BME280;20504;43.214;27.920;2023-03-19T01:24:02;97851.38;;;11.06;100.00
34243;BME280;20504;43.214;27.920;2023-03-19T01:26:28;97830.81;;;11.08;100.00
34243;BME280;20504;43.214;27.920;2023-03-19T01:28:54;97866.47;;;11.05;100.00
34243;BME280;20504;43.214;27.920;2023-03-19T01:31:20;97913.50;;;10.95;100.00
34243;BME280;20504;43.214;27.920;2023-03-19T01:33:46;97944.34;;;10.88;100.00
34243;BME280;20504;43.214;27.920;2023-03-19T01:36:12;97952.28;;;10.88;100.00
34243;BME280;20504;43.214;27.920;2023-03-19T01:38:37;97952.44;;;10.86;100.00
34243;BME280;20504;43.214;27.920;2023-03-19T01:41:03;97991.66;;;10.67;100.00
34243;BME280;20504;43.214;27.920;2023-03-19T01:43:30;97999.31;;;10.78;100.00
34243;BME280;20504;43.214;27.920;2023-03-19T01:46:05;98001.63;;;10.73;100.00
34243;BME280;20504;43.214;27.920;2023-03-19T01:51:12;97981.41;;;10.72;100.00
34243;BME280;20504;43.214;27.920;2023-03-19T01:53:40;97969.19;;;10.79;100.00
34243;BME280;20504;43.214;27.920;2023-03-19T01:56:28;97997.13;;;10.65;100.00
34243;BME280;20504;43.214;27.920;2023-03-19T01:59:03;97999.63;;;10.67;100.00
34243;BME280;20504;43.214;27.920;2023-03-19T02:01:32;97946.66;;;10.83;100.00
34243;BME280;20504;43.214;27.920;2023-03-19T02:03:59;97960.91;;;10.82;100.00
34243;BME280;20504;43.214;27.920;2023-03-19T02:06:25;97960.25;;;10.88;100.00
34243;BME280;20504;43.214;27.920;2023-03-19T02:08:52;97955.28;;;10.93;100.00
34243;BME280;20504;43.214;27.920;2023-03-19T02:11:19;97994.22;;;10.84;100.00
34243;BME280;20504;43.214;27.920;2023-03-19T02:13:45;98020.22;;;10.81;100.00
34243;BME280;20504;43.214;27.920;2023-03-19T02:16:11;97986.75;;;10.96;100.00
34243;BME280;20504;43.214;27.920;2023-03-19T02:18:37;98000.00;;;10.88;100.00
34243;BME280;20504;43.214;27.920;2023-03-19T02:21:12;98021.88;;;10.82;100.00
34243;BME280;20504;43.214;27.920;2023-03-19T02:26:28;97959.78;;;11.01;100.00
34243;BME280;20504;43.214;27.920;2023-03-19T02:28:54;97999.69;;;10.91;100.00
34243;BME280;20504;43.214;27.920;2023-03-19T02:31:20;98012.59;;;10.94;100.00
34243;BME280;20504;43.214;27.920;2023-03-19T02:36:49;98059.91;;;10.65;100.00
34243;BME280;20504;43.214;27.920;2023-03-19T02:42:09;98046.19;;;10.69;100.00
34243;BME280;20504;43.214;27.920;2023-03-19T02:44:35;98029.28;;;10.78;100.00
34243;BME280;20504;43.214;27.920;2023-03-19T02:47:02;97994.72;;;10.96;100.00
34243;BME280;20504;43.214;27.920;2023-03-19T02:49:28;98066.56;;;10.69;100.00
34243;BME280;20504;43.214;27.920;2023-03-19T02:51:53;98127.09;;;10.55;100.00
34243;BME280;20504;43.214;27.920;2023-03-19T02:54:19;98106.56;;;10.57;100.00
34243;BME280;20504;43.214;27.920;2023-03-19T02:56:44;98120.81;;;10.56;100.00
34243;BME280;20504;43.214;27.920;2023-03-19T02:59:10;98085.59;;;10.64;100.00
34243;BME280;20504;43.214;27.920;2023-03-19T03:01:35;98067.88;;;10.73;100.00
34243;BME280;20504;43.214;27.920;2023-03-19T03:04:01;98022.53;;;10.84;100.00
34243;BME280;20504;43.214;27.920;2023-03-19T03:06:27;98039.41;;;10.75;100.00
34243;BME280;20504;43.214;27.920;2023-03-19T03:08:52;98069.53;;;10.66;100.00
34243;BME280;20504;43.214;27.920;2023-03-19T03:11:18;98067.47;;;10.51;100.00
34243;BME280;20504;43.214;27.920;2023-03-19T03:13:44;98031.78;;;10.72;100.00
34243;BME280;20504;43.214;27.920;2023-03-19T03:16:10;98032.44;;;10.74;100.00
34243;BME280;20504;43.214;27.920;2023-03-19T03:18:35;98029.13;;;10.72;100.00
34243;BME280;20504;43.214;27.920;2023-03-19T03:21:02;98037.38;;;10.60;100.00
34243;BME280;20504;43.214;27.920;2023-03-19T03:23:27;98029.63;;;10.75;100.00
34243;BME280;20504;43.214;27.920;2023-03-19T03:25:53;97998.50;;;10.85;100.00
34243;BME280;20504;43.214;27.920;2023-03-19T03:28:18;97994.03;;;10.86;100.00
34243;BME280;20504;43.214;27.920;2023-03-19T03:30:44;98014.25;;;10.79;100.00
34243;BME280;20504;43.214;27.920;2023-03-19T03:33:10;98024.69;;;10.80;100.00
34243;BME280;20504;43.214;27.920;2023-03-19T03:35:36;98014.09;;;10.88;100.00
34243;BME280;20504;43.214;27.920;2023-03-19T03:38:02;98012.94;;;10.83;100.00
34243;BME280;20504;43.214;27.920;2023-03-19T03:40:28;98030.50;;;10.84;100.00
34243;BME280;20504;43.214;27.920;2023-03-19T03:42:53;98029.50;;;10.85;100.00
34243;BME280;20504;43.214;27.920;2023-03-19T03:45:19;97985.47;;;11.00;100.00
34243;BME280;20504;43.214;27.920;2023-03-19T03:47:44;98010.63;;;10.96;100.00
34243;BME280;20504;43.214;27.920;2023-03-19T03:50:10;98004.69;;;11.02;100.00
34243;BME280;20504;43.214;27.920;2023-03-19T03:52:37;98025.19;;;10.92;100.00
34243;BME280;20504;43.214;27.920;2023-03-19T03:55:03;98039.78;;;10.96;100.00
34243;BME280;20504;43.214;27.920;2023-03-19T03:57:29;98042.31;;;10.98;100.00
34243;BME280;20504;43.214;27.920;2023-03-19T03:59:54;98051.94;;;10.99;100.00
34243;BME280;20504;43.214;27.920;2023-03-19T04:02:20;98109.00;;;10.77;100.00
34243;BME280;20504;43.214;27.920;2023-03-19T04:04:46;98183.13;;;10.60;100.00
34243;BME280;20504;43.214;27.920;2023-03-19T04:07:12;98192.13;;;10.68;100.00
34243;BME280;20504;43.214;27.920;2023-03-19T04:09:38;98165.78;;;10.66;100.00
34243;BME280;20504;43.214;27.920;2023-03-19T04:12:03;98192.03;;;10.59;100.00
34243;BME280;20504;43.214;27.920;2023-03-19T04:14:29;98197.94;;;10.71;100.00
34243;BME280;20504;43.214;27.920;2023-03-19T04:16:55;98197.09;;;10.71;100.00
34243;BME280;20504;43.214;27.920;2023-03-19T04:19:20;98193.63;;;10.70;100.00
34243;BME280;20504;43.214;27.920;2023-03-19T04:21:46;98234.84;;;10.65;100.00
34243;BME280;20504;43.214;27.920;2023-03-19T04:24:12;98167.38;;;10.85;100.00
34243;BME280;20504;43.214;27.920;2023-03-19T04:26:38;98161.75;;;10.88;100.00
34243;BME280;20504;43.214;27.920;2023-03-19T04:29:05;98177.97;;;10.85;100.00
34243;BME280;20504;43.214;27.920;2023-03-19T04:31:32;98200.50;;;10.81;100.00
34243;BME280;20504;43.214;27.920;2023-03-19T04:33:58;98184.78;;;10.87;100.00
34243;BME280;20504;43.214;27.920;2023-03-19T04:36:23;98122.38;;;11.01;100.00
34243;BME280;20504;43.214;27.920;2023-03-19T04:38:49;98158.75;;;10.83;100.00
34243;BME280;20504;43.214;27.920;2023-03-19T04:41:14;98163.06;;;10.84;100.00
34243;BME280;20504;43.214;27.920;2023-03-19T04:43:42;98191.47;;;10.74;100.00
34243;BME280;20504;43.214;27.920;2023-03-19T04:46:09;98195.81;;;10.75;100.00
34243;BME280;20504;43.214;27.920;2023-03-19T04:48:35;98164.56;;;10.86;100.00
34243;BME280;20504;43.214;27.920;2023-03-19T04:51:03;98148.16;;;10.91;100.00
34243;BME280;20504;43.214;27.920;2023-03-19T04:53:28;98165.38;;;10.87;100.00
34243;BME280;20504;43.214;27.920;2023-03-19T04:55:54;98130.16;;;11.03;100.00
34243;BME280;20504;43.214;27.920;2023-03-19T04:58:21;98109.28;;;11.08;100.00
34243;BME280;20504;43.214;27.920;2023-03-19T05:00:46;98071.03;;;11.18;100.00
34243;BME280;20504;43.214;27.920;2023-03-19T05:03:14;98042.31;;;11.06;100.00
34243;BME280;20504;43.214;27.920;2023-03-19T05:05:41;98077.63;;;10.98;100.00
34243;BME280;20504;43.214;27.920;2023-03-19T05:08:07;98100.25;;;10.84;100.00
34243;BME280;20504;43.214;27.920;2023-03-19T05:10:34;98056.53;;;10.97;100.00
34243;BME280;20504;43.214;27.920;2023-03-19T05:13:00;98031.53;;;10.99;100.00
34243;BME280;20504;43.214;27.920;2023-03-19T05:15:26;98037.19;;;11.04;100.00
34243;BME280;20504;43.214;27.920;2023-03-19T05:17:51;97981.19;;;11.23;100.00
34243;BME280;20504;43.214;27.920;2023-03-19T05:20:17;97981.50;;;11.20;100.00
34243;BME280;20504;43.214;27.920;2023-03-19T05:22:43;97969.75;;;11.23;100.00
34243;BME280;20504;43.214;27.920;2023-03-19T05:25:09;97936.91;;;11.24;100.00
34243;BME280;20504;43.214;27.920;2023-03-19T05:27:35;98032.41;;;11.16;100.00
34243;BME280;20504;43.214;27.920;2023-03-19T05:30:00;98078.78;;;11.04;100.00
34243;BME280;20504;43.214;27.920;2023-03-19T05:32:27;98056.47;;;11.31;100.00
34243;BME280;20504;43.214;27.920;2023-03-19T05:34:52;98101.56;;;11.31;100.00
34243;BME280;20504;43.214;27.920;2023-03-19T05:37:18;98105.09;;;11.47;100.00
34243;BME280;20504;43.214;27.920;2023-03-19T05:39:43;98179.88;;;11.35;100.00
34243;BME280;20504;43.214;27.920;2023-03-19T05:42:12;98208.75;;;11.38;100.00
34243;BME280;20504;43.214;27.920;2023-03-19T05:44:39;98196.66;;;11.51;100.00
34243;BME280;20504;43.214;27.920;2023-03-19T05:47:04;98224.72;;;11.54;100.00
34243;BME280;20504;43.214;27.920;2023-03-19T05:49:31;98310.44;;;11.46;100.00
34243;BME280;20504;43.214;27.920;2023-03-19T05:51:56;98323.47;;;11.66;100.00
34243;BME280;20504;43.214;27.920;2023-03-19T05:54:22;98387.31;;;11.56;100.00
34243;BME280;20504;43.214;27.920;2023-03-19T05:56:47;98521.34;;;11.34;100.00
34243;BME280;20504;43.214;27.920;2023-03-19T05:59:13;98605.94;;;11.19;100.00
34243;BME280;20504;43.214;27.920;2023-03-19T06:01:38;98557.44;;;11.45;100.00
34243;BME280;20504;43.214;27.920;2023-03-19T06:04:04;98623.31;;;11.32;100.00
34243;BME280;20504;43.214;27.920;2023-03-19T06:06:29;98639.34;;;11.40;100.00
34243;BME280;20504;43.214;27.920;2023-03-19T06:08:56;98629.19;;;11.53;100.00
34243;BME280;20504;43.214;27.920;2023-03-19T06:11:21;98666.34;;;11.53;100.00
34243;BME280;20504;43.214;27.920;2023-03-19T06:13:47;98711.38;;;11.45;100.00
34243;BME280;20504;43.214;27.920;2023-03-19T06:16:12;98669.56;;;11.74;100.00
34243;BME280;20504;43.214;27.920;2023-03-19T06:18:37;98716.81;;;11.71;100.00
34243;BME280;20504;43.214;27.920;2023-03-19T06:21:03;98786.28;;;11.66;100.00
34243;BME280;20504;43.214;27.920;2023-03-19T06:23:29;98821.16;;;11.53;100.00
34243;BME280;20504;43.214;27.920;2023-03-19T06:25:54;98847.28;;;11.58;100.00
34243;BME280;20504;43.214;27.920;2023-03-19T06:28:20;98895.34;;;11.55;100.00
34243;BME280;20504;43.214;27.920;2023-03-19T06:30:46;98854.47;;;11.75;100.00
34243;BME280;20504;43.214;27.920;2023-03-19T06:33:12;98872.59;;;11.90;100.00
34243;BME280;20504;43.214;27.920;2023-03-19T06:35:38;98881.28;;;11.92;100.00
34243;BME280;20504;43.214;27.920;2023-03-19T06:38:04;98967.53;;;11.88;100.00
34243;BME280;20504;43.214;27.920;2023-03-19T06:40:30;99084.13;;;11.62;100.00
34243;BME280;20504;43.214;27.920;2023-03-19T06:42:55;99147.81;;;11.52;100.00
34243;BME280;20504;43.214;27.920;2023-03-19T06:45:21;99230.63;;;11.27;100.00
34243;BME280;20504;43.214;27.920;2023-03-19T06:47:47;99207.91;;;11.43;100.00
34243;BME280;20504;43.214;27.920;2023-03-19T06:50:14;99149.25;;;11.66;100.00
34243;BME280;20504;43.214;27.920;2023-03-19T06:52:40;99136.00;;;11.95;100.00
34243;BME280;20504;43.214;27.920;2023-03-19T06:55:06;99160.75;;;11.95;100.00
34243;BME280;20504;43.214;27.920;2023-03-19T06:57:33;99126.28;;;12.32;100.00
34243;BME280;20504;43.214;27.920;2023-03-19T06:59:58;99246.31;;;12.08;100.00
34243;BME280;20504;43.214;27.920;2023-03-19T07:02:24;99317.09;;;12.00;100.00
34243;BME280;20504;43.214;27.920;2023-03-19T07:04:50;99341.03;;;12.09;100.00
34243;BME280;20504;43.214;27.920;2023-03-19T07:07:16;99388.97;;;12.08;100.00
34243;BME280;20504;43.214;27.920;2023-03-19T07:09:42;99448.53;;;11.96;100.00
34243;BME280;20504;43.214;27.920;2023-03-19T07:12:08;99472.88;;;12.01;100.00
34243;BME280;20504;43.214;27.920;2023-03-19T07:14:33;99505.94;;;11.87;100.00
34243;BME280;20504;43.214;27.920;2023-03-19T07:16:59;99565.91;;;11.80;100.00
34243;BME280;20504;43.214;27.920;2023-03-19T07:19:25;99602.88;;;11.72;100.00
34243;BME280;20504;43.214;27.920;2023-03-19T07:21:50;99543.84;;;11.89;100.00
34243;BME280;20504;43.214;27.920;2023-03-19T07:24:16;99536.41;;;12.04;100.00
34243;BME280;20504;43.214;27.920;2023-03-19T07:26:41;99571.53;;;11.87;100.00
34243;BME280;20504;43.214;27.920;2023-03-19T07:29:08;99514.22;;;12.15;100.00
34243;BME280;20504;43.214;27.920;2023-03-19T07:31:33;99566.16;;;11.98;100.00
34243;BME280;20504;43.214;27.920;2023-03-19T07:33:59;99560.53;;;11.91;100.00
34243;BME280;20504;43.214;27.920;2023-03-19T07:36:24;99523.75;;;12.17;100.00
34243;BME280;20504;43.214;27.920;2023-03-19T07:38:50;99554.34;;;12.11;100.00
34243;BME280;20504;43.214;27.920;2023-03-19T07:41:16;99568.34;;;12.13;100.00
34243;BME280;20504;43.214;27.920;2023-03-19T07:43:41;99519.22;;;12.38;100.00
34243;BME280;20504;43.214;27.920;2023-03-19T07:46:07;99612.44;;;12.16;100.00
34243;BME280;20504;43.214;27.920;2023-03-19T07:48:32;99573.66;;;12.44;100.00
34243;BME280;20504;43.214;27.920;2023-03-19T07:50:58;99607.66;;;12.40;100.00
34243;BME280;20504;43.214;27.920;2023-03-19T07:53:24;99618.16;;;12.42;100.00
34243;BME280;20504;43.214;27.920;2023-03-19T07:55:49;99600.66;;;12.70;100.00
34243;BME280;20504;43.214;27.920;2023-03-19T07:58:15;99653.81;;;12.60;100.00
34243;BME280;20504;43.214;27.920;2023-03-19T08:00:41;99643.09;;;12.81;100.00
34243;BME280;20504;43.214;27.920;2023-03-19T08:03:06;99689.28;;;12.70;100.00
34243;BME280;20504;43.214;27.920;2023-03-19T08:05:32;99753.31;;;12.58;100.00
34243;BME280;20504;43.214;27.920;2023-03-19T08:07:58;99782.41;;;12.50;100.00
34243;BME280;20504;43.214;27.920;2023-03-19T08:10:23;99804.16;;;12.43;100.00
34243;BME280;20504;43.214;27.920;2023-03-19T08:12:49;99761.03;;;12.61;100.00
34243;BME280;20504;43.214;27.920;2023-03-19T08:15:15;99763.06;;;12.48;100.00
34243;BME280;20504;43.214;27.920;2023-03-19T08:17:40;99735.75;;;12.66;100.00
34243;BME280;20504;43.214;27.920;2023-03-19T08:20:09;99695.75;;;12.78;100.00
34243;BME280;20504;43.214;27.920;2023-03-19T08:22:35;99694.69;;;12.90;100.00
34243;BME280;20504;43.214;27.920;2023-03-19T08:25:02;99621.41;;;13.36;100.00
34243;BME280;20504;43.214;27.920;2023-03-19T08:27:28;99589.06;;;13.50;100.00
34243;BME280;20504;43.214;27.920;2023-03-19T08:29:54;99572.91;;;13.90;100.00
34243;BME280;20504;43.214;27.920;2023-03-19T08:32:20;99622.16;;;13.86;100.00
34243;BME280;20504;43.214;27.920;2023-03-19T08:34:45;99624.94;;;14.13;100.00
34243;BME280;20504;43.214;27.920;2023-03-19T08:37:11;99698.75;;;14.03;100.00
34243;BME280;20504;43.214;27.920;2023-03-19T08:39:36;99715.72;;;14.21;100.00
34243;BME280;20504;43.214;27.920;2023-03-19T08:42:04;99746.19;;;14.19;100.00
34243;BME280;20504;43.214;27.920;2023-03-19T08:44:30;99738.16;;;14.38;100.00
34243;BME280;20504;43.214;27.920;2023-03-19T08:46:55;99689.41;;;14.65;100.00
34243;BME280;20504;43.214;27.920;2023-03-19T08:49:21;99763.88;;;14.59;100.00
34243;BME280;20504;43.214;27.920;2023-03-19T08:51:46;99748.91;;;14.85;100.00
34243;BME280;20504;43.214;27.920;2023-03-19T08:54:12;99849.66;;;14.64;100.00
34243;BME280;20504;43.214;27.920;2023-03-19T08:56:38;99859.06;;;14.68;100.00
34243;BME280;20504;43.214;27.920;2023-03-19T08:59:04;99827.75;;;14.79;100.00
34243;BME280;20504;43.214;27.920;2023-03-19T09:01:30;99888.44;;;14.77;100.00
34243;BME280;20504;43.214;27.920;2023-03-19T09:03:56;100019.44;;;14.15;100.00
34243;BME280;20504;43.214;27.920;2023-03-19T09:06:21;99951.03;;;14.44;100.00
34243;BME280;20504;43.214;27.920;2023-03-19T09:08:47;99881.69;;;14.44;100.00
34243;BME280;20504;43.214;27.920;2023-03-19T09:11:13;99955.22;;;14.37;100.00
34243;BME280;20504;43.214;27.920;2023-03-19T09:13:40;99966.88;;;14.36;100.00
34243;BME280;20504;43.214;27.920;2023-03-19T09:16:06;100038.38;;;13.91;100.00
34243;BME280;20504;43.214;27.920;2023-03-19T09:18:33;99971.56;;;14.13;100.00
34243;BME280;20504;43.214;27.920;2023-03-19T09:21:00;99982.06;;;14.05;100.00
34243;BME280;20504;43.214;27.920;2023-03-19T09:23:26;99997.03;;;13.97;100.00
34243;BME280;20504;43.214;27.920;2023-03-19T09:25:52;99996.00;;;13.88;100.00
34243;BME280;20504;43.214;27.920;2023-03-19T09:28:18;99983.78;;;13.85;100.00
34243;BME280;20504;43.214;27.920;2023-03-19T09:30:45;99945.00;;;14.02;100.00
34243;BME280;20504;43.214;27.920;2023-03-19T09:33:12;99980.81;;;13.79;100.00
34243;BME280;20504;43.214;27.920;2023-03-19T09:35:37;99967.63;;;13.77;100.00
34243;BME280;20504;43.214;27.920;2023-03-19T09:38:04;99892.94;;;14.08;100.00
34243;BME280;20504;43.214;27.920;2023-03-19T09:40:40;99676.78;;;14.58;100.00
34243;BME280;20504;43.214;27.920;2023-03-19T09:45:58;99571.34;;;14.81;100.00
34243;BME280;20504;43.214;27.920;2023-03-19T09:49:00;99641.75;;;14.80;100.00
34243;BME280;20504;43.214;27.920;2023-03-19T09:51:57;99689.34;;;14.84;100.00
34243;BME280;20504;43.214;27.920;2023-03-19T09:54:34;99799.09;;;14.33;100.00
34243;BME280;20504;43.214;27.920;2023-03-19T09:57:03;99759.47;;;14.67;100.00
34243;BME280;20504;43.214;27.920;2023-03-19T09:59:30;99797.97;;;14.74;100.00
34243;BME280;20504;43.214;27.920;2023-03-19T10:04:54;99850.38;;;14.56;100.00
34243;BME280;20504;43.214;27.920;2023-03-19T10:07:24;99784.13;;;15.08;100.00
34243;BME280;20504;43.214;27.920;2023-03-19T10:10:33;99749.44;;;15.35;100.00
34243;BME280;20504;43.214;27.920;2023-03-19T10:15:50;99738.50;;;15.84;100.00
34243;BME280;20504;43.214;27.920;2023-03-19T10:18:27;99682.59;;;16.34;100.00
34243;BME280;20504;43.214;27.920;2023-03-19T10:23:49;99713.06;;;16.85;100.00
34243;BME280;20504;43.214;27.920;2023-03-19T10:26:19;99715.25;;;17.15;100.00
34243;BME280;20504;43.214;27.920;2023-03-19T10:29:07;99851.03;;;16.71;100.00
34243;BME280;20504;43.214;27.920;2023-03-19T10:31:41;99856.00;;;16.66;100.00
34243;BME280;20504;43.214;27.920;2023-03-19T10:34:32;99801.03;;;16.98;100.00
34243;BME280;20504;43.214;27.920;2023-03-19T10:37:02;99950.16;;;16.34;100.00
34243;BME280;20504;43.214;27.920;2023-03-19T10:39:32;99938.09;;;16.30;100.00
34243;BME280;20504;43.214;27.920;2023-03-19T10:45:37;99888.75;;;16.60;100.00
34243;BME280;20504;43.214;27.920;2023-03-19T10:48:04;99833.53;;;16.77;100.00
34243;BME280;20504;43.214;27.920;2023-03-19T10:50:34;99857.59;;;16.59;100.00
34243;BME280;20504;43.214;27.920;2023-03-19T10:55:37;99810.72;;;17.16;100.00
34243;BME280;20504;43.214;27.920;2023-03-19T10:58:19;99874.59;;;16.85;100.00
34243;BME280;20504;43.214;27.920;2023-03-19T11:00:47;99936.91;;;16.60;100.00
34243;BME280;20504;43.214;27.920;2023-03-19T11:03:33;99935.25;;;16.59;100.00
34243;BME280;20504;43.214;27.920;2023-03-19T11:09:00;100057.09;;;15.50;100.00
34243;BME280;20504;43.214;27.920;2023-03-19T11:11:46;100004.78;;;15.67;100.00
34243;BME280;20504;43.214;27.920;2023-03-19T11:16:54;99824.03;;;16.29;100.00
34243;BME280;20504;43.214;27.920;2023-03-19T11:19:26;99748.16;;;16.74;100.00
34243;BME280;20504;43.214;27.920;2023-03-19T11:22:08;99718.72;;;17.08;100.00
34243;BME280;20504;43.214;27.920;2023-03-19T11:24:38;99757.06;;;17.08;100.00
34243;BME280;20504;43.214;27.920;2023-03-19T11:27:06;99948.88;;;16.11;100.00
34243;BME280;20504;43.214;27.920;2023-03-19T11:29:32;99985.31;;;15.84;100.00
34243;BME280;20504;43.214;27.920;2023-03-19T11:34:48;99881.28;;;16.18;100.00
34243;BME280;20504;43.214;27.920;2023-03-19T11:45:29;99456.03;;;17.42;100.00
34243;BME280;20504;43.214;27.920;2023-03-19T11:50:57;99528.25;;;17.51;100.00
34243;BME280;20504;43.214;27.920;2023-03-19T11:56:01;99614.50;;;17.39;100.00
34243;BME280;20504;43.214;27.920;2023-03-19T12:04:40;99555.06;;;18.00;100.00
34243;BME280;20504;43.214;27.920;2023-03-19T12:15:59;99839.91;;;17.27;100.00
34243;BME280;20504;43.214;27.920;2023-03-19T12:21:29;99732.63;;;17.96;100.00
34243;BME280;20504;43.214;27.920;2023-03-19T12:24:11;99756.94;;;18.02;100.00
34243;BME280;20504;43.214;27.920;2023-03-19T12:29:44;99814.63;;;17.98;100.00
34243;BME280;20504;43.214;27.920;2023-03-19T12:32:30;99844.72;;;17.76;100.00
34243;BME280;20504;43.214;27.920;2023-03-19T12:35:17;99813.78;;;17.98;100.00
34243;BME280;20504;43.214;27.920;2023-03-19T12:46:44;99925.63;;;17.45;100.00
34243;BME280;20504;43.214;27.920;2023-03-19T12:49:17;99865.81;;;17.71;100.00
34243;BME280;20504;43.214;27.920;2023-03-19T12:51:55;99795.34;;;18.03;100.00
34243;BME280;20504;43.214;27.920;2023-03-19T12:54:32;99855.53;;;18.00;100.00
34243;BME280;20504;43.214;27.920;2023-03-19T12:57:18;99946.34;;;17.35;100.00
34243;BME280;20504;43.214;27.920;2023-03-19T13:00:06;99786.34;;;18.28;100.00
34243;BME280;20504;43.214;27.920;2023-03-19T13:02:42;99883.19;;;17.93;100.00
34243;BME280;20504;43.214;27.920;2023-03-19T13:10:57;99723.88;;;18.99;100.00
34243;BME280;20504;43.214;27.920;2023-03-19T13:13:39;99478.38;;;20.94;100.00
34243;BME280;20504;43.214;27.920;2023-03-19T13:19:14;99686.56;;;20.96;100.00
34243;BME280;20504;43.214;27.920;2023-03-19T13:21:36;99944.56;;;19.61;100.00
34243;BME280;20504;43.214;27.920;2023-03-19T13:24:11;99944.19;;;19.32;100.00
34243;BME280;20504;43.214;27.920;2023-03-19T13:26:41;99926.94;;;19.18;100.00
34243;BME280;20504;43.214;27.920;2023-03-19T13:29:14;99810.25;;;19.60;100.00
34243;BME280;20504;43.214;27.920;2023-03-19T13:31:42;99875.31;;;19.39;100.00
34243;BME280;20504;43.214;27.920;2023-03-19T13:36:58;99985.22;;;18.51;100.00
34243;BME280;20504;43.214;27.920;2023-03-19T13:39:28;99846.81;;;18.89;100.00
34243;BME280;20504;43.214;27.920;2023-03-19T13:46:56;99860.09;;;18.16;100.00
34243;BME280;20504;43.214;27.920;2023-03-19T13:51:58;99642.00;;;19.57;100.00
34243;BME280;20504;43.214;27.920;2023-03-19T13:59:35;99359.44;;;23.55;100.00
34243;BME280;20504;43.214;27.920;2023-03-19T14:07:24;99681.75;;;22.63;100.00
34243;BME280;20504;43.214;27.920;2023-03-19T14:12:35;99765.31;;;22.16;100.00
34243;BME280;20504;43.214;27.920;2023-03-19T14:17:40;99326.59;;;24.86;100.00
34243;BME280;20504;43.214;27.920;2023-03-19T14:22:38;99518.66;;;24.31;100.00
34243;BME280;20504;43.214;27.920;2023-03-19T14:25:19;99702.16;;;23.29;100.00
34243;BME280;20504;43.214;27.920;2023-03-19T14:27:47;99413.38;;;24.86;100.00
34243;BME280;20504;43.214;27.920;2023-03-19T14:32:44;99514.94;;;24.39;100.00
34243;BME280;20504;43.214;27.920;2023-03-19T14:35:16;99518.88;;;24.23;100.00
34243;BME280;20504;43.214;27.920;2023-03-19T14:37:49;99444.53;;;25.09;100.00
34243;BME280;20504;43.214;27.920;2023-03-19T14:40:25;99439.84;;;25.22;100.00
34243;BME280;20504;43.214;27.920;2023-03-19T14:45:47;99418.88;;;25.61;100.00
34243;BME280;20504;43.214;27.920;2023-03-19T14:56:05;99467.22;;;25.21;100.00